Time;durP1;ratioP1;P1;durP2;ratioP2;P2;SDS_P1;SDS_P2;PMS_P1;PMS_P2;Temp;Humidity;BMP_temperature;BMP_pressure;BME280_temperature;BME280_humidity;BME280_pressure;Samples;Min_cycle;Max_cycle;Signal;HPM_P1;HPM_P2
2022/10/17 00:02:30;;;;;;;14.07;8.80;;;;;13.60;100943.00;;;;10485192;28;20281;-73
2022/10/17 00:07:31;;;;;;;15.07;8.97;;;;;13.50;100941.00;;;;10471909;28;20217;-73
2022/10/17 00:12:33;;;;;;;9.73;8.30;;;;;13.40;100952.00;;;;10467973;28;20932;-73
2022/10/17 00:17:34;;;;;;;11.30;8.63;;;;;13.40;100942.00;;;;10492038;28;20254;-73
2022/10/17 00:22:35;;;;;;;10.97;7.90;;;;;13.30;100953.00;;;;10468956;28;20225;-73
2022/10/17 00:27:41;;;;;;;11.00;9.07;;;;;13.20;100948.00;;;;10450595;28;20196;-73
2022/10/17 00:32:43;;;;;;;11.67;8.03;;;;;13.30;100952.00;;;;10477080;28;20225;-73
2022/10/17 00:37:44;;;;;;;12.20;8.07;;;;;13.50;100954.00;;;;10495458;28;20205;-73
2022/10/17 00:42:45;;;;;;;13.47;9.73;;;;;13.80;100945.00;;;;10456526;28;20240;-73
2022/10/17 00:48:03;;;;;;;12.80;9.23;;;;;14.10;100937.00;;;;10481886;28;20205;-74
2022/10/17 00:53:07;;;;;;;10.30;8.87;;;;;14.30;100942.00;;;;10488549;28;20230;-74
2022/10/17 00:58:10;;;;;;;13.33;9.13;;;;;14.30;100936.00;;;;10474214;28;20201;-73
2022/10/17 01:03:12;;;;;;;14.13;8.10;;;;;14.40;100938.00;;;;10492862;28;20197;-73
2022/10/17 01:08:21;;;;;;;11.07;8.30;;;;;14.50;100939.00;;;;10457217;28;20228;-73
2022/10/17 01:13:43;;;;;;;11.95;8.95;;;;;14.60;100943.00;;;;10456664;28;20215;-73
2022/10/17 01:19:09;;;;;;;13.40;8.60;;;;;14.80;100942.00;;;;10479510;28;20219;-73
2022/10/17 01:24:22;;;;;;;9.73;7.30;;;;;14.80;100948.00;;;;10479763;28;20207;-73
2022/10/17 01:29:52;;;;;;;11.77;7.97;;;;;14.90;100944.00;;;;10467521;28;20224;-73
2022/10/17 01:35:01;;;;;;;15.45;7.55;;;;;14.90;100949.00;;;;10482085;28;20197;-73
2022/10/17 01:40:10;;;;;;;11.02;8.25;;;;;15.00;100947.00;;;;10496244;28;20208;-73
2022/10/17 01:45:18;;;;;;;13.27;7.97;;;;;15.10;100947.00;;;;10484142;28;20197;-73
2022/10/17 01:50:29;;;;;;;9.18;7.65;;;;;15.10;100940.00;;;;10474722;28;20256;-73
2022/10/17 01:55:38;;;;;;;11.85;8.25;;;;;15.10;100950.00;;;;10480793;28;20193;-73
2022/10/17 02:00:41;;;;;;;13.95;8.40;;;;;15.20;100944.00;;;;10482545;28;20209;-73
2022/10/17 02:05:44;;;;;;;8.68;7.75;;;;;15.30;100936.00;;;;10483799;28;20237;-73
2022/10/17 02:11:04;;;;;;;14.07;8.20;;;;;15.30;100938.00;;;;10484594;28;20221;-73
2022/10/17 02:16:34;;;;;;;13.38;7.97;;;;;15.40;100931.00;;;;10483219;28;20224;-73
2022/10/17 02:22:06;;;;;;;10.75;8.95;;;;;15.50;100939.00;;;;10471503;28;20201;-73
2022/10/17 02:27:15;;;;;;;11.68;7.55;;;;;15.60;100939.00;;;;10488106;28;20208;-73
2022/10/17 02:32:23;;;;;;;12.23;8.50;;;;;15.60;100934.00;;;;10465700;28;20224;-73
2022/10/17 02:37:28;;;;;;;11.88;7.70;;;;;15.80;100931.00;;;;10430160;28;20193;-73
2022/10/17 02:42:31;;;;;;;8.90;7.35;;;;;15.90;100936.00;;;;10476271;28;20202;-74
2022/10/17 02:47:42;;;;;;;12.32;8.00;;;;;15.90;100934.00;;;;10450832;28;20191;-73
2022/10/17 02:53:00;;;;;;;15.02;8.00;;;;;15.90;100936.00;;;;10460839;28;20224;-73
2022/10/17 02:58:10;;;;;;;14.40;6.57;;;;;16.00;100943.00;;;;10469118;28;20208;-73
2022/10/17 03:03:29;;;;;;;11.98;8.73;;;;;16.10;100940.00;;;;10487110;28;20197;-73
2022/10/17 03:08:34;;;;;;;16.50;7.38;;;;;16.20;100944.00;;;;10482585;28;20876;-74
2022/10/17 03:13:36;;;;;;;8.52;7.63;;;;;16.30;100950.00;;;;10471536;28;20343;-73
2022/10/17 03:18:40;;;;;;;8.07;6.97;;;;;16.40;100954.00;;;;10457536;28;20201;-74
2022/10/17 03:23:44;;;;;;;10.18;7.10;;;;;16.50;100953.00;;;;10486866;28;20205;-73
2022/10/17 03:28:47;;;;;;;7.05;6.35;;;;;16.50;100951.00;;;;10418006;28;20662;-73
2022/10/17 03:33:54;;;;;;;7.25;6.47;;;;;16.50;100945.00;;;;10470668;28;20225;-73
2022/10/17 03:38:56;;;;;;;11.30;6.88;;;;;16.50;100954.00;;;;10468955;28;20201;-73
2022/10/17 03:43:57;;;;;;;14.40;7.07;;;;;16.50;100959.00;;;;10473261;28;20216;-73
2022/10/17 03:48:59;;;;;;;14.93;7.35;;;;;16.50;100952.00;;;;10480092;28;20236;-73
2022/10/17 03:54:00;;;;;;;7.30;6.50;;;;;16.50;100970.00;;;;10450179;28;20221;-74
2022/10/17 03:59:02;;;;;;;9.90;6.75;;;;;16.50;100991.00;;;;10493285;28;20257;-73
2022/10/17 04:04:06;;;;;;;8.32;6.25;;;;;16.50;100994.00;;;;10480531;28;20308;-73
2022/10/17 04:09:09;;;;;;;8.60;6.30;;;;;16.50;100987.00;;;;10479648;28;20741;-73
2022/10/17 04:14:27;;;;;;;8.05;6.05;;;;;16.50;100993.00;;;;10484945;28;20205;-73
2022/10/17 04:19:28;;;;;;;11.73;6.63;;;;;16.50;100990.00;;;;10467083;28;20197;-74
2022/10/17 04:24:30;;;;;;;14.52;6.43;;;;;16.40;100998.00;;;;10489876;28;20197;-74
2022/10/17 04:29:40;;;;;;;10.93;7.10;;;;;16.40;100991.00;;;;10466966;28;20205;-74
2022/10/17 04:34:55;;;;;;;12.90;6.93;;;;;16.50;101003.00;;;;10484512;28;20214;-74
2022/10/17 04:39:57;;;;;;;7.85;5.82;;;;;16.40;101011.00;;;;10480076;28;20374;-74
2022/10/17 04:44:59;;;;;;;7.68;6.32;;;;;16.40;101000.00;;;;10458089;28;20198;-74
2022/10/17 04:50:01;;;;;;;8.95;6.32;;;;;16.40;101002.00;;;;10479016;28;20244;-74
2022/10/17 04:55:04;;;;;;;8.32;5.80;;;;;16.30;101018.00;;;;10468015;28;20847;-74
2022/10/17 05:00:08;;;;;;;12.48;6.70;;;;;16.30;101028.00;;;;10441473;28;20233;-74
2022/10/17 05:05:28;;;;;;;9.25;6.97;;;;;16.30;101040.00;;;;10481454;28;20240;-74
2022/10/17 05:10:36;;;;;;;9.45;6.28;;;;;16.30;101028.00;;;;10467696;28;20844;-74
2022/10/17 05:15:38;;;;;;;7.78;6.45;;;;;16.20;101027.00;;;;10470099;28;20285;-74
2022/10/17 05:20:39;;;;;;;9.82;6.07;;;;;16.20;101028.00;;;;10477970;28;20209;-74
2022/10/17 05:25:41;;;;;;;9.43;6.90;;;;;16.20;101031.00;;;;10470879;28;20695;-74
2022/10/17 05:30:42;;;;;;;9.77;6.05;;;;;16.30;101027.00;;;;10474690;28;20225;-74
2022/10/17 05:35:44;;;;;;;8.02;6.13;;;;;16.40;101036.00;;;;10477155;28;20211;-74
2022/10/17 05:40:45;;;;;;;9.25;5.80;;;;;16.40;101043.00;;;;10450789;28;20209;-74
2022/10/17 05:45:46;;;;;;;10.32;6.10;;;;;16.40;101056.00;;;;10489712;28;20837;-74
2022/10/17 05:51:01;;;;;;;8.88;6.43;;;;;16.50;101061.00;;;;10480768;28;20933;-74
2022/10/17 05:56:06;;;;;;;7.85;6.05;;;;;16.50;101052.00;;;;10480846;28;20209;-73
2022/10/17 06:01:09;;;;;;;7.60;5.50;;;;;16.60;101051.00;;;;10465877;28;20228;-75
2022/10/17 06:06:14;;;;;;;8.25;5.93;;;;;16.60;101053.00;;;;10466588;28;20217;-73
2022/10/17 06:11:18;;;;;;;6.93;5.38;;;;;16.60;101064.00;;;;10471549;28;20929;-74
2022/10/17 06:16:19;;;;;;;6.95;5.25;;;;;16.70;101053.00;;;;10475684;28;20200;-74
2022/10/17 06:21:24;;;;;;;8.27;5.15;;;;;16.70;101059.00;;;;10504346;28;20202;-74
2022/10/17 06:26:27;;;;;;;5.28;4.80;;;;;16.80;101062.00;;;;10483471;28;20330;-74
2022/10/17 06:31:28;;;;;;;7.18;4.80;;;;;16.90;101075.00;;;;10468981;28;20224;-74
2022/10/17 06:36:30;;;;;;;5.40;4.68;;;;;17.00;101093.00;;;;10476038;28;20197;-74
2022/10/17 06:41:31;;;;;;;13.57;5.13;;;;;17.00;101121.00;;;;10457891;28;20246;-73
2022/10/17 06:46:39;;;;;;;5.15;4.40;;;;;17.10;101142.00;;;;10461071;28;20974;-74
2022/10/17 06:51:42;;;;;;;9.07;5.32;;;;;17.20;101173.00;;;;10471284;28;20217;-74
2022/10/17 06:56:46;;;;;;;7.05;4.88;;;;;17.30;101184.00;;;;10469351;28;20209;-74
2022/10/17 07:02:01;;;;;;;6.72;4.88;;;;;17.40;101167.00;;;;10470828;28;20742;-74
2022/10/17 07:07:04;;;;;;;8.90;4.65;;;;;17.50;101189.00;;;;10444529;28;20213;-74
2022/10/17 07:12:07;;;;;;;8.52;4.90;;;;;17.60;101196.00;;;;10464583;28;20910;-73
2022/10/17 07:17:09;;;;;;;10.25;4.95;;;;;17.70;101197.00;;;;10443905;28;20197;-73
2022/10/17 07:22:12;;;;;;;8.60;4.25;;;;;17.70;101235.00;;;;10494883;28;20205;-74
2022/10/17 07:27:17;;;;;;;8.85;4.57;;;;;17.80;101247.00;;;;10463988;28;20209;-74
2022/10/17 07:32:18;;;;;;;5.93;3.30;;;;;17.80;101271.00;;;;10447435;28;20217;-73
2022/10/17 07:37:19;;;;;;;9.32;3.47;;;;;17.40;101285.00;;;;10437288;28;20209;-72
2022/10/17 07:42:27;;;;;;;10.32;4.50;;;;;17.20;101303.00;;;;10466699;28;20201;-73
2022/10/17 07:47:29;;;;;;;5.25;3.70;;;;;17.00;101309.00;;;;10454171;28;20204;-73
2022/10/17 07:52:33;;;;;;;6.63;3.63;;;;;16.80;101328.00;;;;10474152;28;20276;-73
2022/10/17 07:57:34;;;;;;;5.15;4.50;;;;;16.70;101325.00;;;;10488126;28;20191;-73
2022/10/17 08:02:35;;;;;;;5.63;4.57;;;;;16.70;101297.00;;;;10455601;28;20201;-73
2022/10/17 08:07:37;;;;;;;6.78;4.80;;;;;16.80;101288.00;;;;10493880;28;20247;-72
2022/10/17 08:12:39;;;;;;;6.32;4.85;;;;;16.90;101302.00;;;;10450532;28;20227;-72
2022/10/17 08:17:40;;;;;;;12.30;5.47;;;;;16.90;101306.00;;;;10469182;28;20234;-72
2022/10/17 08:22:41;;;;;;;7.18;5.18;;;;;16.70;101327.00;;;;10460196;28;20646;-72
2022/10/17 08:27:42;;;;;;;7.63;5.50;;;;;16.60;101367.00;;;;10476505;28;20714;-74
2022/10/17 08:32:43;;;;;;;12.18;6.18;;;;;16.60;101357.00;;;;10462453;28;20216;-73
2022/10/17 08:37:44;;;;;;;13.27;7.68;;;;;16.80;101318.00;;;;10485934;28;20206;-73
2022/10/17 08:43:18;;;;;;;12.68;6.80;;;;;17.20;101284.00;;;;10475108;28;20695;-73
2022/10/17 08:48:24;;;;;;;13.13;6.85;;;;;17.60;101294.00;;;;10454959;28;20233;-72
2022/10/17 08:53:43;;;;;;;13.68;6.72;;;;;17.60;101288.00;;;;10502733;28;20235;-72
2022/10/17 08:58:45;;;;;;;7.47;6.05;;;;;17.40;101289.00;;;;10469152;28;20773;-72
2022/10/17 09:03:58;;;;;;;10.73;6.25;;;;;17.20;101275.00;;;;10475759;28;20873;-73
2022/10/17 09:09:27;;;;;;;7.55;6.30;;;;;17.10;101279.00;;;;10469552;28;20201;-73
2022/10/17 09:14:41;;;;;;;10.02;6.22;;;;;17.00;101272.00;;;;10481843;28;20274;-72
2022/10/17 09:20:11;;;;;;;6.78;5.82;;;;;17.10;101281.00;;;;10474749;28;20197;-72
2022/10/17 09:25:16;;;;;;;6.97;5.90;;;;;17.10;101302.00;;;;10449976;28;20209;-72
2022/10/17 09:30:35;;;;;;;8.45;6.70;;;;;17.10;101319.00;;;;10481256;28;20213;-72
2022/10/17 09:35:51;;;;;;;9.63;6.47;;;;;17.00;101360.00;;;;10472414;28;20213;-72
2022/10/17 09:40:59;;;;;;;10.88;6.82;;;;;17.10;101365.00;;;;10482258;28;20224;-72
2022/10/17 09:46:37;;;;;;;10.40;7.57;;;;;17.10;101371.00;;;;10473791;28;20205;-72
2022/10/17 09:51:39;;;;;;;14.82;8.02;;;;;17.10;101386.00;;;;10469372;28;20236;-72
2022/10/17 09:57:17;;;;;;;10.60;7.65;;;;;17.10;101392.00;;;;10467246;28;20255;-72
2022/10/17 10:02:20;;;;;;;10.68;6.57;;;;;17.20;101404.00;;;;10423746;28;20233;-73
2022/10/17 10:07:23;;;;;;;9.90;7.60;;;;;17.20;101410.00;;;;10490164;28;20224;-72
2022/10/17 10:12:33;;;;;;;10.55;7.25;;;;;17.20;101415.00;;;;10473915;28;20692;-72
2022/10/17 10:17:43;;;;;;;13.05;7.93;;;;;17.20;101415.00;;;;10466925;28;20939;-72
2022/10/17 10:23:03;;;;;;;13.10;7.68;;;;;17.30;101415.00;;;;10488207;28;20201;-73
2022/10/17 10:28:10;;;;;;;8.88;7.97;;;;;17.30;101419.00;;;;10466137;28;20208;-72
2022/10/17 10:33:12;;;;;;;10.98;6.97;;;;;17.50;101424.00;;;;10477173;28;20217;-72
2022/10/17 10:38:16;;;;;;;12.82;8.70;;;;;17.70;101422.00;;;;10462013;28;20563;-72
2022/10/17 10:43:24;;;;;;;11.18;7.72;;;;;18.10;101429.00;;;;10485500;28;20212;-73
2022/10/17 10:48:31;;;;;;;11.00;7.50;;;;;18.20;101449.00;;;;10462863;28;20232;-73
2022/10/17 10:54:20;;;;;;;16.38;8.25;;;;;18.20;101464.00;;;;10451032;28;20227;-72
2022/10/17 10:59:49;;;;;;;13.27;8.98;;;;;18.00;101480.00;;;;10431212;28;20213;-73
2022/10/17 11:04:56;;;;;;;14.82;7.90;;;;;18.00;101481.00;;;;10450811;28;20236;-73
2022/10/17 11:10:20;;;;;;;14.05;7.82;;;;;18.10;101487.00;;;;10473549;28;20732;-73
2022/10/17 11:15:35;;;;;;;9.55;7.50;;;;;18.10;101485.00;;;;10459132;28;20193;-73
2022/10/17 11:20:58;;;;;;;9.82;6.95;;;;;18.00;101488.00;;;;10455000;28;20259;-73
2022/10/17 11:26:04;;;;;;;10.43;7.07;;;;;18.00;101490.00;;;;10480524;28;20202;-73
2022/10/17 11:31:11;;;;;;;8.60;6.55;;;;;18.00;101503.00;;;;10451820;28;20214;-73
2022/10/17 11:36:14;;;;;;;9.80;7.32;;;;;17.80;101518.00;;;;10454617;28;20194;-73
2022/10/17 11:41:30;;;;;;;11.85;6.97;;;;;17.70;101516.00;;;;10449167;28;20201;-73
2022/10/17 11:46:34;;;;;;;12.63;7.63;;;;;17.70;101524.00;;;;10478849;28;20205;-73
2022/10/17 11:52:00;;;;;;;11.68;8.13;;;;;17.80;101526.00;;;;10482677;28;20225;-73
2022/10/17 11:57:23;;;;;;;14.15;8.10;;;;;18.10;101527.00;;;;10495252;28;20224;-73
2022/10/17 12:02:38;;;;;;;12.50;8.48;;;;;18.20;101528.00;;;;10491486;28;20201;-73
2022/10/17 12:08:08;;;;;;;12.10;7.85;;;;;18.00;101550.00;;;;10455055;28;20257;-73
2022/10/17 12:13:27;;;;;;;10.13;8.00;;;;;17.90;101559.00;;;;10479877;28;20217;-73
2022/10/17 12:18:28;;;;;;;11.63;8.45;;;;;18.10;101557.00;;;;10490260;28;20292;-73
2022/10/17 12:23:31;;;;;;;9.13;8.10;;;;;18.10;101571.00;;;;10469220;28;20197;-73
2022/10/17 12:28:45;;;;;;;13.35;8.77;;;;;18.00;101574.00;;;;10474111;28;20215;-73
2022/10/17 12:33:58;;;;;;;9.35;7.47;;;;;17.90;101584.00;;;;10491290;28;20221;-73
2022/10/17 12:39:03;;;;;;;10.77;8.32;;;;;17.80;101595.00;;;;10486334;28;20931;-73
2022/10/17 12:44:13;;;;;;;11.82;8.65;;;;;17.90;101601.00;;;;10483470;28;20656;-73
2022/10/17 12:49:44;;;;;;;10.77;8.23;;;;;18.10;101597.00;;;;10496022;28;20185;-73
2022/10/17 12:55:13;;;;;;;12.57;8.15;;;;;18.40;101588.00;;;;10466946;28;20226;-73
2022/10/17 13:00:36;;;;;;;9.90;8.90;;;;;18.50;101609.00;;;;10464368;28;20234;-73
2022/10/17 13:05:39;;;;;;;12.65;8.93;;;;;18.60;101601.00;;;;10417767;28;20219;-73
2022/10/17 13:10:46;;;;;;;10.38;8.32;;;;;18.80;101619.00;;;;10469531;28;20259;-72
2022/10/17 13:15:54;;;;;;;12.57;9.00;;;;;18.90;101619.00;;;;10488321;28;20208;-72
2022/10/17 13:21:13;;;;;;;13.15;8.75;;;;;18.90;101632.00;;;;10473677;28;20197;-72
2022/10/17 13:26:19;;;;;;;10.30;7.90;;;;;19.10;101640.00;;;;10468939;28;20663;-72
2022/10/17 13:31:33;;;;;;;8.60;6.57;;;;;19.20;101652.00;;;;10489911;28;20217;-73
2022/10/17 13:36:34;;;;;;;9.45;5.97;;;;;19.30;101660.00;;;;10457054;28;20252;-72
2022/10/17 13:41:37;;;;;;;10.45;5.70;;;;;19.30;101665.00;;;;10488789;28;20835;-73
2022/10/17 13:46:39;;;;;;;10.18;5.40;;;;;19.30;101669.00;;;;10458495;28;20201;-73
2022/10/17 13:51:46;;;;;;;7.78;4.72;;;;;19.20;101680.00;;;;10482004;28;20217;-73
2022/10/17 13:56:56;;;;;;;5.03;4.18;;;;;19.10;101670.00;;;;10465839;28;20202;-73
2022/10/17 14:02:00;;;;;;;5.07;4.18;;;;;18.90;101671.00;;;;10474408;28;20197;-73
2022/10/17 14:07:02;;;;;;;7.15;4.05;;;;;18.80;101668.00;;;;10477623;28;20580;-73
2022/10/17 14:12:15;;;;;;;5.18;4.10;;;;;18.70;101670.00;;;;10446302;28;20816;-73
2022/10/17 14:17:34;;;;;;;5.10;3.38;;;;;18.60;101667.00;;;;10493174;28;20866;-73
2022/10/17 14:22:36;;;;;;;6.20;3.70;;;;;18.70;101658.00;;;;10469128;28;20266;-73
2022/10/17 14:27:54;;;;;;;5.40;3.00;;;;;18.80;101669.00;;;;10483269;28;20255;-73
2022/10/17 14:32:58;;;;;;;8.90;3.70;;;;;18.90;101682.00;;;;10443316;28;20221;-73
2022/10/17 14:38:04;;;;;;;4.93;3.80;;;;;18.90;101691.00;;;;10444330;28;20197;-73
2022/10/17 14:43:05;;;;;;;7.55;3.97;;;;;18.80;101700.00;;;;10478483;28;20294;-73
2022/10/17 14:48:13;;;;;;;6.18;3.42;;;;;18.70;101710.00;;;;10471161;28;20204;-73
2022/10/17 14:53:15;;;;;;;5.90;3.72;;;;;18.70;101718.00;;;;10474974;28;20221;-73
2022/10/17 14:58:21;;;;;;;5.55;3.78;;;;;18.70;101724.00;;;;10489261;28;20200;-73
2022/10/17 15:03:23;;;;;;;5.65;3.63;;;;;18.60;101730.00;;;;10430351;28;20676;-73
2022/10/17 15:08:25;;;;;;;4.18;3.17;;;;;18.50;101751.00;;;;10489920;28;20914;-73
2022/10/17 15:13:26;;;;;;;4.40;3.63;;;;;18.40;101745.00;;;;10445219;28;20221;-73
2022/10/17 15:18:29;;;;;;;6.03;3.60;;;;;18.30;101759.00;;;;10478390;28;20878;-73
2022/10/17 15:23:30;;;;;;;4.13;3.20;;;;;18.20;101760.00;;;;10481125;28;20243;-73
2022/10/17 15:28:32;;;;;;;5.40;3.70;;;;;18.10;101760.00;;;;10471398;28;20193;-74
2022/10/17 15:33:33;;;;;;;5.40;3.33;;;;;18.00;101759.00;;;;10479444;28;20212;-73
2022/10/17 15:38:34;;;;;;;4.03;3.05;;;;;18.00;101761.00;;;;10481037;28;20197;-73
2022/10/17 15:43:35;;;;;;;4.53;3.20;;;;;17.90;101749.00;;;;10489087;28;20251;-73
2022/10/17 15:48:37;;;;;;;7.78;3.40;;;;;17.80;101758.00;;;;10476581;28;20244;-73
2022/10/17 15:53:38;;;;;;;4.50;3.33;;;;;17.70;101753.00;;;;10474960;28;20240;-74
2022/10/17 15:58:39;;;;;;;6.70;4.10;;;;;17.60;101759.00;;;;10466171;28;20354;-73
2022/10/17 16:03:41;;;;;;;8.07;4.10;;;;;17.40;101757.00;;;;10488258;28;20208;-73
2022/10/17 16:08:42;;;;;;;10.35;4.63;;;;;17.30;101761.00;;;;10465739;28;20221;-73
2022/10/17 16:13:51;;;;;;;7.25;4.70;;;;;17.20;101769.00;;;;10495930;28;20217;-73
2022/10/17 16:18:52;;;;;;;7.45;4.20;;;;;17.10;101768.00;;;;10461194;28;20194;-73
2022/10/17 16:23:53;;;;;;;9.30;4.60;;;;;17.10;101784.00;;;;10504659;28;20660;-73
2022/10/17 16:28:56;;;;;;;8.20;4.03;;;;;17.00;101788.00;;;;10497843;28;20233;-73
2022/10/17 16:33:59;;;;;;;8.85;4.40;;;;;16.90;101788.00;;;;10455982;28;20256;-73
2022/10/17 16:39:01;;;;;;;5.38;4.30;;;;;16.80;101794.00;;;;10456453;28;20201;-73
2022/10/17 16:44:05;;;;;;;6.38;4.57;;;;;16.70;101798.00;;;;10465240;28;20194;-73
2022/10/17 16:49:06;;;;;;;7.65;5.32;;;;;16.60;101793.00;;;;10475441;28;20741;-73
2022/10/17 16:54:08;;;;;;;9.05;5.10;;;;;16.60;101801.00;;;;10495234;28;20226;-72
2022/10/17 16:59:10;;;;;;;7.00;4.22;;;;;16.60;101807.00;;;;10479402;28;20197;-73
2022/10/17 17:04:11;;;;;;;10.40;4.70;;;;;16.50;101812.00;;;;10454959;28;20240;-73
2022/10/17 17:09:13;;;;;;;9.35;4.53;;;;;16.50;101823.00;;;;10448450;28;20198;-73
2022/10/17 17:14:14;;;;;;;11.93;6.90;;;;;16.40;101822.00;;;;10482393;28;20224;-73
2022/10/17 17:19:15;;;;;;;8.73;5.40;;;;;16.30;101822.00;;;;10500988;28;20211;-74
2022/10/17 17:24:21;;;;;;;7.68;5.68;;;;;16.30;101833.00;;;;10491343;28;20205;-73
2022/10/17 17:29:23;;;;;;;8.43;5.57;;;;;16.20;101840.00;;;;10484728;28;20221;-73
2022/10/17 17:34:25;;;;;;;13.02;5.70;;;;;16.20;101841.00;;;;10478376;28;20572;-73
2022/10/17 17:39:26;;;;;;;9.00;6.43;;;;;16.20;101843.00;;;;10479187;28;20790;-73
2022/10/17 17:44:27;;;;;;;10.50;6.53;;;;;16.30;101842.00;;;;10487336;28;20222;-73
2022/10/17 17:49:28;;;;;;;7.47;6.32;;;;;16.30;101835.00;;;;10459755;28;20191;-73
2022/10/17 17:54:29;;;;;;;7.20;6.10;;;;;16.30;101845.00;;;;10467942;28;20229;-73
2022/10/17 17:59:30;;;;;;;6.22;5.63;;;;;16.30;101832.00;;;;10483849;28;20231;-73
2022/10/17 18:04:32;;;;;;;7.80;4.97;;;;;16.20;101835.00;;;;10491892;28;20228;-73
2022/10/17 18:09:33;;;;;;;11.30;4.53;;;;;16.20;101843.00;;;;10467073;28;20201;-73
2022/10/17 18:14:34;;;;;;;9.50;4.38;;;;;16.10;101842.00;;;;10473460;28;20726;-74
2022/10/17 18:19:35;;;;;;;6.35;4.47;;;;;16.10;101851.00;;;;10457304;28;20438;-74
2022/10/17 18:24:37;;;;;;;8.23;3.88;;;;;16.10;101864.00;;;;10466429;28;20204;-74
2022/10/17 18:29:38;;;;;;;5.10;4.10;;;;;16.00;101870.00;;;;10482976;28;20205;-74
2022/10/17 18:34:40;;;;;;;6.22;3.95;;;;;16.00;101874.00;;;;10481782;28;20263;-74
2022/10/17 18:39:41;;;;;;;5.28;3.50;;;;;16.00;101872.00;;;;10484896;28;20200;-74
2022/10/17 18:44:42;;;;;;;6.32;3.60;;;;;16.00;101877.00;;;;10448382;28;20202;-74
2022/10/17 18:49:44;;;;;;;4.38;3.90;;;;;16.00;101880.00;;;;10450031;28;20273;-74
2022/10/17 18:54:45;;;;;;;5.40;3.53;;;;;15.90;101879.00;;;;10469313;28;20213;-74
2022/10/17 18:59:46;;;;;;;5.63;3.65;;;;;15.90;101886.00;;;;10462698;28;20250;-74
2022/10/17 19:04:47;;;;;;;4.85;3.45;;;;;15.90;101876.00;;;;10456313;28;20298;-74
2022/10/17 19:09:53;;;;;;;10.65;4.00;;;;;15.90;101871.00;;;;10490778;28;20205;-74
2022/10/17 19:14:55;;;;;;;7.82;3.92;;;;;15.90;101888.00;;;;10468767;28;20739;-74
2022/10/17 19:19:56;;;;;;;6.47;3.70;;;;;15.90;101889.00;;;;10479252;28;20272;-74
2022/10/17 19:24:57;;;;;;;6.28;3.90;;;;;15.90;101889.00;;;;10470510;28;20216;-74
2022/10/17 19:29:58;;;;;;;5.00;3.50;;;;;15.90;101894.00;;;;10472766;28;20200;-74
2022/10/17 19:34:59;;;;;;;8.18;4.90;;;;;15.90;101903.00;;;;10480902;28;20679;-74
2022/10/17 19:40:01;;;;;;;6.22;4.60;;;;;15.80;101903.00;;;;10462306;28;20197;-74
2022/10/17 19:45:02;;;;;;;4.05;3.63;;;;;15.70;101903.00;;;;10472474;28;20202;-74
2022/10/17 19:50:05;;;;;;;4.85;4.45;;;;;15.70;101893.00;;;;10465009;28;20204;-74
2022/10/17 19:55:06;;;;;;;6.65;4.90;;;;;15.60;101895.00;;;;10461406;28;20217;-74
2022/10/17 20:00:08;;;;;;;7.63;4.70;;;;;15.50;101891.00;;;;10474328;28;20288;-74
2022/10/17 20:05:12;;;;;;;4.47;3.85;;;;;15.50;101903.00;;;;10480592;28;20210;-73
2022/10/17 20:10:20;;;;;;;5.95;4.88;;;;;15.50;101897.00;;;;10465734;28;20201;-74
2022/10/17 20:15:21;;;;;;;6.97;4.20;;;;;15.40;101900.00;;;;10472423;28;20205;-74
2022/10/17 20:20:23;;;;;;;7.78;4.60;;;;;15.40;101897.00;;;;10504942;28;20732;-74
2022/10/17 20:25:24;;;;;;;5.18;4.45;;;;;15.40;101910.00;;;;10487260;28;20213;-73
2022/10/17 20:30:25;;;;;;;7.53;5.22;;;;;15.40;101915.00;;;;10475788;28;20231;-74
2022/10/17 20:35:26;;;;;;;7.32;5.35;;;;;15.30;101919.00;;;;10470700;28;20292;-74
2022/10/17 20:40:27;;;;;;;6.72;5.10;;;;;15.30;101923.00;;;;10458900;28;20204;-74
2022/10/17 20:45:39;;;;;;;9.07;6.82;;;;;15.20;101936.00;;;;10464729;28;20198;-73
2022/10/17 20:50:53;;;;;;;9.40;6.15;;;;;15.20;101932.00;;;;10461654;28;20232;-74
2022/10/17 20:56:06;;;;;;;10.48;5.60;;;;;15.20;101932.00;;;;10494989;28;20194;-74
2022/10/17 21:01:08;;;;;;;6.75;5.60;;;;;15.30;101939.00;;;;10477588;28;20213;-74
2022/10/17 21:06:10;;;;;;;7.25;4.95;;;;;15.30;101952.00;;;;10485843;28;20341;-74
2022/10/17 21:11:20;;;;;;;5.82;4.95;;;;;15.30;101959.00;;;;10462554;28;20222;-75
2022/10/17 21:16:21;;;;;;;8.35;5.30;;;;;15.40;101961.00;;;;10492045;28;20201;-74
2022/10/17 21:21:26;;;;;;;8.68;5.90;;;;;15.50;101960.00;;;;10487480;28;20223;-74
2022/10/17 21:26:27;;;;;;;6.65;5.35;;;;;15.50;101973.00;;;;10452655;28;20220;-74
2022/10/17 21:31:29;;;;;;;7.45;5.43;;;;;15.50;101976.00;;;;10501810;28;20247;-74
2022/10/17 21:36:30;;;;;;;6.82;5.53;;;;;15.50;101977.00;;;;10492962;28;20217;-74
2022/10/17 21:41:32;;;;;;;8.80;5.80;;;;;15.50;101977.00;;;;10470121;28;20698;-73
2022/10/17 21:46:33;;;;;;;7.85;5.90;;;;;15.50;101977.00;;;;10460092;28;20185;-74
2022/10/17 21:51:34;;;;;;;6.75;5.20;;;;;15.50;101982.00;;;;10488826;28;20248;-73
2022/10/17 21:56:36;;;;;;;6.78;5.20;;;;;15.50;101981.00;;;;10453972;28;20205;-74
2022/10/17 22:01:40;;;;;;;8.15;6.13;;;;;15.50;101981.00;;;;10469939;28;20205;-74
2022/10/17 22:06:44;;;;;;;9.95;6.07;;;;;15.50;101976.00;;;;10445983;28;20243;-74
2022/10/17 22:11:48;;;;;;;8.05;6.35;;;;;15.40;101983.00;;;;10458712;28;20221;-73
2022/10/17 22:16:49;;;;;;;8.18;6.45;;;;;15.40;101993.00;;;;10472911;28;20209;-74
2022/10/17 22:21:51;;;;;;;8.07;6.75;;;;;15.40;101989.00;;;;10468937;28;20674;-74
2022/10/17 22:26:52;;;;;;;7.57;6.35;;;;;15.40;102001.00;;;;10487281;28;20205;-74
2022/10/17 22:31:54;;;;;;;8.32;6.05;;;;;15.40;101986.00;;;;10478075;28;20216;-73
2022/10/17 22:36:55;;;;;;;8.50;6.20;;;;;15.40;101984.00;;;;10493289;28;20572;-74
2022/10/17 22:41:56;;;;;;;7.78;6.68;;;;;15.40;101987.00;;;;10502801;28;20208;-74
2022/10/17 22:46:57;;;;;;;8.10;6.85;;;;;15.40;101990.00;;;;10505903;28;20240;-74
2022/10/17 22:51:58;;;;;;;8.73;7.05;;;;;15.40;101996.00;;;;10464000;28;20453;-74
2022/10/17 22:56:59;;;;;;;10.13;7.07;;;;;15.40;101999.00;;;;10473142;28;20202;-74
2022/10/17 23:02:01;;;;;;;7.85;6.57;;;;;15.40;101996.00;;;;10488553;28;20229;-74
2022/10/17 23:07:02;;;;;;;10.48;6.72;;;;;15.40;101990.00;;;;10479460;28;20216;-74
2022/10/17 23:12:03;;;;;;;9.15;6.57;;;;;15.40;101989.00;;;;10477048;28;20279;-74
2022/10/17 23:17:05;;;;;;;10.20;6.22;;;;;15.30;101988.00;;;;10445613;28;20217;-74
2022/10/17 23:22:07;;;;;;;7.95;6.35;;;;;15.30;101989.00;;;;10484442;28;20205;-74
2022/10/17 23:27:08;;;;;;;7.32;6.25;;;;;15.30;101980.00;;;;10472915;28;20208;-74
2022/10/17 23:32:09;;;;;;;8.80;6.93;;;;;15.20;101977.00;;;;10474309;28;20691;-74
2022/10/17 23:37:11;;;;;;;11.55;6.18;;;;;15.20;101978.00;;;;10463041;28;20674;-74
2022/10/17 23:42:12;;;;;;;9.68;7.30;;;;;15.20;101976.00;;;;10484800;28;20204;-74
2022/10/17 23:47:13;;;;;;;8.95;6.57;;;;;15.20;101968.00;;;;10473061;28;20204;-74
2022/10/17 23:52:14;;;;;;;7.50;6.20;;;;;15.20;101971.00;;;;10474787;28;20274;-74
2022/10/17 23:57:15;;;;;;;8.93;6.80;;;;;15.20;101965.00;;;;10476880;28;20197;-74
